sensor_id;sensor_type;location;lat;lon;timestamp;temperature;humidity
8420;DHT22;4247;48.550;8.822;2022-08-19T00:01:33;20.60;99.90
8420;DHT22;4247;48.550;8.822;2022-08-19T00:04:03;20.50;99.90
8420;DHT22;4247;48.550;8.822;2022-08-19T00:06:30;20.50;99.90
8420;DHT22;4247;48.550;8.822;2022-08-19T00:08:58;20.50;99.90
8420;DHT22;4247;48.550;8.822;2022-08-19T00:11:27;20.50;99.90
8420;DHT22;4247;48.550;8.822;2022-08-19T00:13:55;20.50;99.90
8420;DHT22;4247;48.550;8.822;2022-08-19T00:16:23;20.50;99.90
8420;DHT22;4247;48.550;8.822;2022-08-19T00:18:50;20.50;99.90
8420;DHT22;4247;48.550;8.822;2022-08-19T00:21:17;20.50;99.90
8420;DHT22;4247;48.550;8.822;2022-08-19T00:23:43;20.50;99.90
8420;DHT22;4247;48.550;8.822;2022-08-19T00:26:11;20.50;99.90
8420;DHT22;4247;48.550;8.822;2022-08-19T00:28:39;20.50;99.90
8420;DHT22;4247;48.550;8.822;2022-08-19T00:31:08;20.50;99.90
8420;DHT22;4247;48.550;8.822;2022-08-19T00:33:35;20.40;99.90
8420;DHT22;4247;48.550;8.822;2022-08-19T00:36:04;20.40;99.90
8420;DHT22;4247;48.550;8.822;2022-08-19T00:38:32;20.40;99.90
8420;DHT22;4247;48.550;8.822;2022-08-19T00:40:59;20.30;99.90
8420;DHT22;4247;48.550;8.822;2022-08-19T00:43:26;20.30;99.90
8420;DHT22;4247;48.550;8.822;2022-08-19T00:45:55;20.20;99.90
8420;DHT22;4247;48.550;8.822;2022-08-19T00:48:22;20.20;99.90
8420;DHT22;4247;48.550;8.822;2022-08-19T00:50:50;20.20;99.90
8420;DHT22;4247;48.550;8.822;2022-08-19T00:53:23;20.10;99.90
8420;DHT22;4247;48.550;8.822;2022-08-19T00:55:53;20.10;99.90
8420;DHT22;4247;48.550;8.822;2022-08-19T00:58:26;20.10;99.90
8420;DHT22;4247;48.550;8.822;2022-08-19T01:00:55;20.10;99.90
8420;DHT22;4247;48.550;8.822;2022-08-19T01:03:24;20.00;99.90
8420;DHT22;4247;48.550;8.822;2022-08-19T01:05:52;20.00;99.90
8420;DHT22;4247;48.550;8.822;2022-08-19T01:08:21;20.00;99.90
8420;DHT22;4247;48.550;8.822;2022-08-19T01:10:55;20.00;99.90
8420;DHT22;4247;48.550;8.822;2022-08-19T01:13:27;20.00;99.90
8420;DHT22;4247;48.550;8.822;2022-08-19T01:16:00;20.00;99.90
8420;DHT22;4247;48.550;8.822;2022-08-19T01:18:29;19.90;99.90
8420;DHT22;4247;48.550;8.822;2022-08-19T01:21:02;19.90;99.90
8420;DHT22;4247;48.550;8.822;2022-08-19T01:23:33;19.90;99.90
8420;DHT22;4247;48.550;8.822;2022-08-19T01:26:12;19.80;99.90
8420;DHT22;4247;48.550;8.822;2022-08-19T01:28:40;19.80;99.90
8420;DHT22;4247;48.550;8.822;2022-08-19T01:31:12;19.80;99.90
8420;DHT22;4247;48.550;8.822;2022-08-19T01:33:41;19.80;99.90
8420;DHT22;4247;48.550;8.822;2022-08-19T01:36:12;19.70;99.90
8420;DHT22;4247;48.550;8.822;2022-08-19T01:38:43;19.70;99.90
8420;DHT22;4247;48.550;8.822;2022-08-19T01:41:10;19.70;99.90
8420;DHT22;4247;48.550;8.822;2022-08-19T01:43:37;19.60;99.90
8420;DHT22;4247;48.550;8.822;2022-08-19T01:46:04;19.60;99.90
8420;DHT22;4247;48.550;8.822;2022-08-19T01:48:36;19.60;99.90
8420;DHT22;4247;48.550;8.822;2022-08-19T01:51:04;19.50;99.90
8420;DHT22;4247;48.550;8.822;2022-08-19T01:53:31;19.50;99.90
8420;DHT22;4247;48.550;8.822;2022-08-19T01:55:59;19.50;99.90
8420;DHT22;4247;48.550;8.822;2022-08-19T01:58:31;19.40;99.90
8420;DHT22;4247;48.550;8.822;2022-08-19T02:00:59;19.40;99.90
8420;DHT22;4247;48.550;8.822;2022-08-19T02:03:25;19.40;99.90
8420;DHT22;4247;48.550;8.822;2022-08-19T02:05:57;19.30;99.90
8420;DHT22;4247;48.550;8.822;2022-08-19T02:08:25;19.30;99.90
8420;DHT22;4247;48.550;8.822;2022-08-19T02:10:52;19.30;99.90
8420;DHT22;4247;48.550;8.822;2022-08-19T02:13:21;19.30;99.90
8420;DHT22;4247;48.550;8.822;2022-08-19T02:15:48;19.30;99.90
8420;DHT22;4247;48.550;8.822;2022-08-19T02:18:15;19.30;99.90
8420;DHT22;4247;48.550;8.822;2022-08-19T02:20:42;19.30;99.90
8420;DHT22;4247;48.550;8.822;2022-08-19T02:23:11;19.20;99.90
8420;DHT22;4247;48.550;8.822;2022-08-19T02:25:40;19.20;99.90
8420;DHT22;4247;48.550;8.822;2022-08-19T02:28:07;19.20;99.90
8420;DHT22;4247;48.550;8.822;2022-08-19T02:30:36;19.20;99.90
8420;DHT22;4247;48.550;8.822;2022-08-19T02:33:03;19.20;99.90
8420;DHT22;4247;48.550;8.822;2022-08-19T02:35:31;19.20;99.90
8420;DHT22;4247;48.550;8.822;2022-08-19T02:37:59;19.20;99.90
8420;DHT22;4247;48.550;8.822;2022-08-19T02:40:49;19.20;99.90
8420;DHT22;4247;48.550;8.822;2022-08-19T02:43:17;19.10;99.90
8420;DHT22;4247;48.550;8.822;2022-08-19T02:45:48;19.10;99.90
8420;DHT22;4247;48.550;8.822;2022-08-19T02:48:19;19.10;99.90
8420;DHT22;4247;48.550;8.822;2022-08-19T02:50:46;19.10;99.90
8420;DHT22;4247;48.550;8.822;2022-08-19T02:53:16;19.10;99.90
8420;DHT22;4247;48.550;8.822;2022-08-19T02:55:45;19.10;99.90
8420;DHT22;4247;48.550;8.822;2022-08-19T02:58:13;19.10;99.90
8420;DHT22;4247;48.550;8.822;2022-08-19T03:00:44;19.00;99.90
8420;DHT22;4247;48.550;8.822;2022-08-19T03:03:13;19.10;99.90
8420;DHT22;4247;48.550;8.822;2022-08-19T03:05:41;19.10;99.90
8420;DHT22;4247;48.550;8.822;2022-08-19T03:08:09;19.00;99.90
8420;DHT22;4247;48.550;8.822;2022-08-19T03:10:42;19.00;99.90
8420;DHT22;4247;48.550;8.822;2022-08-19T03:13:11;19.10;99.90
8420;DHT22;4247;48.550;8.822;2022-08-19T03:15:40;19.10;99.90
8420;DHT22;4247;48.550;8.822;2022-08-19T03:18:07;19.00;99.90
8420;DHT22;4247;48.550;8.822;2022-08-19T03:20:40;19.00;99.90
8420;DHT22;4247;48.550;8.822;2022-08-19T03:23:07;19.00;99.90
8420;DHT22;4247;48.550;8.822;2022-08-19T03:25:37;19.00;99.90
8420;DHT22;4247;48.550;8.822;2022-08-19T03:28:06;19.00;99.90
8420;DHT22;4247;48.550;8.822;2022-08-19T03:30:32;18.90;99.90
8420;DHT22;4247;48.550;8.822;2022-08-19T03:32:59;19.00;99.90
8420;DHT22;4247;48.550;8.822;2022-08-19T03:35:27;18.90;99.90
8420;DHT22;4247;48.550;8.822;2022-08-19T03:37:55;18.90;99.90
8420;DHT22;4247;48.550;8.822;2022-08-19T03:40:22;18.90;99.90
8420;DHT22;4247;48.550;8.822;2022-08-19T03:42:52;18.90;99.90
8420;DHT22;4247;48.550;8.822;2022-08-19T03:45:19;18.90;99.90
8420;DHT22;4247;48.550;8.822;2022-08-19T03:47:46;18.90;99.90
8420;DHT22;4247;48.550;8.822;2022-08-19T03:50:13;18.90;99.90
8420;DHT22;4247;48.550;8.822;2022-08-19T03:52:40;18.90;99.90
8420;DHT22;4247;48.550;8.822;2022-08-19T03:55:09;18.90;99.90
8420;DHT22;4247;48.550;8.822;2022-08-19T03:57:36;18.90;99.90
8420;DHT22;4247;48.550;8.822;2022-08-19T04:00:04;18.90;99.90
8420;DHT22;4247;48.550;8.822;2022-08-19T04:02:33;18.90;99.90
8420;DHT22;4247;48.550;8.822;2022-08-19T04:05:00;18.90;99.90
8420;DHT22;4247;48.550;8.822;2022-08-19T04:07:27;18.90;99.90
8420;DHT22;4247;48.550;8.822;2022-08-19T04:09:55;18.90;99.90
8420;DHT22;4247;48.550;8.822;2022-08-19T04:12:23;18.90;99.90
8420;DHT22;4247;48.550;8.822;2022-08-19T04:14:50;18.90;99.90
8420;DHT22;4247;48.550;8.822;2022-08-19T04:17:17;18.90;99.90
8420;DHT22;4247;48.550;8.822;2022-08-19T04:19:44;18.90;99.90
8420;DHT22;4247;48.550;8.822;2022-08-19T04:22:11;18.90;99.90
8420;DHT22;4247;48.550;8.822;2022-08-19T04:24:38;18.90;99.90
8420;DHT22;4247;48.550;8.822;2022-08-19T04:27:05;18.90;99.90
8420;DHT22;4247;48.550;8.822;2022-08-19T04:29:33;18.90;99.90
8420;DHT22;4247;48.550;8.822;2022-08-19T04:32:00;18.90;99.90
8420;DHT22;4247;48.550;8.822;2022-08-19T04:34:28;18.90;99.90
8420;DHT22;4247;48.550;8.822;2022-08-19T04:36:56;18.90;99.90
8420;DHT22;4247;48.550;8.822;2022-08-19T04:39:25;18.90;99.90
8420;DHT22;4247;48.550;8.822;2022-08-19T04:42:13;18.90;99.90
8420;DHT22;4247;48.550;8.822;2022-08-19T04:44:59;18.90;99.90
8420;DHT22;4247;48.550;8.822;2022-08-19T04:47:27;18.90;99.90
8420;DHT22;4247;48.550;8.822;2022-08-19T04:49:57;18.90;99.90
8420;DHT22;4247;48.550;8.822;2022-08-19T04:52:23;18.90;99.90
8420;DHT22;4247;48.550;8.822;2022-08-19T04:54:50;18.90;99.90
8420;DHT22;4247;48.550;8.822;2022-08-19T04:57:17;18.90;99.90
8420;DHT22;4247;48.550;8.822;2022-08-19T04:59:54;18.90;99.90
8420;DHT22;4247;48.550;8.822;2022-08-19T05:02:23;18.90;99.90
8420;DHT22;4247;48.550;8.822;2022-08-19T05:04:50;18.90;99.90
8420;DHT22;4247;48.550;8.822;2022-08-19T05:07:17;19.00;99.90
8420;DHT22;4247;48.550;8.822;2022-08-19T05:09:44;19.00;99.90
8420;DHT22;4247;48.550;8.822;2022-08-19T05:12:11;19.00;99.90
8420;DHT22;4247;48.550;8.822;2022-08-19T05:14:38;19.00;99.90
8420;DHT22;4247;48.550;8.822;2022-08-19T05:17:05;19.10;99.90
8420;DHT22;4247;48.550;8.822;2022-08-19T05:19:33;19.10;99.90
8420;DHT22;4247;48.550;8.822;2022-08-19T05:22:18;19.10;99.90
8420;DHT22;4247;48.550;8.822;2022-08-19T05:25:03;19.10;99.90
8420;DHT22;4247;48.550;8.822;2022-08-19T05:27:30;19.10;99.90
8420;DHT22;4247;48.550;8.822;2022-08-19T05:29:57;19.10;99.90
8420;DHT22;4247;48.550;8.822;2022-08-19T05:32:25;19.10;99.90
8420;DHT22;4247;48.550;8.822;2022-08-19T05:34:54;19.20;99.90
8420;DHT22;4247;48.550;8.822;2022-08-19T05:37:21;19.20;99.90
8420;DHT22;4247;48.550;8.822;2022-08-19T05:39:48;19.20;99.90
8420;DHT22;4247;48.550;8.822;2022-08-19T05:42:15;19.20;99.90
8420;DHT22;4247;48.550;8.822;2022-08-19T05:44:45;19.20;99.90
8420;DHT22;4247;48.550;8.822;2022-08-19T05:47:14;19.20;99.90
8420;DHT22;4247;48.550;8.822;2022-08-19T05:49:42;19.30;99.90
8420;DHT22;4247;48.550;8.822;2022-08-19T05:52:13;19.20;99.90
8420;DHT22;4247;48.550;8.822;2022-08-19T05:54:42;19.30;99.90
8420;DHT22;4247;48.550;8.822;2022-08-19T05:57:13;19.40;99.90
8420;DHT22;4247;48.550;8.822;2022-08-19T05:59:40;19.40;99.90
8420;DHT22;4247;48.550;8.822;2022-08-19T06:02:07;19.30;99.90
8420;DHT22;4247;48.550;8.822;2022-08-19T06:04:34;19.30;99.90
8420;DHT22;4247;48.550;8.822;2022-08-19T06:07:01;19.30;99.90
8420;DHT22;4247;48.550;8.822;2022-08-19T06:09:30;19.30;99.90
8420;DHT22;4247;48.550;8.822;2022-08-19T06:11:58;19.30;99.90
8420;DHT22;4247;48.550;8.822;2022-08-19T06:14:32;19.30;99.90
8420;DHT22;4247;48.550;8.822;2022-08-19T06:16:59;19.40;99.90
8420;DHT22;4247;48.550;8.822;2022-08-19T06:19:28;19.40;99.90
8420;DHT22;4247;48.550;8.822;2022-08-19T06:21:56;19.40;99.90
8420;DHT22;4247;48.550;8.822;2022-08-19T06:24:25;19.40;99.90
8420;DHT22;4247;48.550;8.822;2022-08-19T06:26:56;19.40;99.90
8420;DHT22;4247;48.550;8.822;2022-08-19T06:29:24;19.40;99.90
8420;DHT22;4247;48.550;8.822;2022-08-19T06:31:54;19.40;99.90
8420;DHT22;4247;48.550;8.822;2022-08-19T06:34:22;19.40;99.90
8420;DHT22;4247;48.550;8.822;2022-08-19T06:36:51;19.40;99.90
8420;DHT22;4247;48.550;8.822;2022-08-19T06:39:20;19.40;99.90
8420;DHT22;4247;48.550;8.822;2022-08-19T06:41:50;19.40;99.90
8420;DHT22;4247;48.550;8.822;2022-08-19T06:44:20;19.40;99.90
8420;DHT22;4247;48.550;8.822;2022-08-19T06:46:51;19.50;99.90
8420;DHT22;4247;48.550;8.822;2022-08-19T06:49:19;19.50;99.90
8420;DHT22;4247;48.550;8.822;2022-08-19T06:51:47;19.50;99.90
8420;DHT22;4247;48.550;8.822;2022-08-19T06:54:15;19.50;99.90
8420;DHT22;4247;48.550;8.822;2022-08-19T06:56:42;19.50;99.90
8420;DHT22;4247;48.550;8.822;2022-08-19T06:59:12;19.50;99.90
8420;DHT22;4247;48.550;8.822;2022-08-19T07:01:44;19.50;99.90
8420;DHT22;4247;48.550;8.822;2022-08-19T07:04:14;19.60;99.90
8420;DHT22;4247;48.550;8.822;2022-08-19T07:06:41;19.60;99.90
8420;DHT22;4247;48.550;8.822;2022-08-19T07:09:11;19.60;99.90
8420;DHT22;4247;48.550;8.822;2022-08-19T07:11:38;19.70;99.90
8420;DHT22;4247;48.550;8.822;2022-08-19T07:14:05;19.80;99.90
8420;DHT22;4247;48.550;8.822;2022-08-19T07:16:34;19.70;99.90
8420;DHT22;4247;48.550;8.822;2022-08-19T07:19:02;19.80;99.90
8420;DHT22;4247;48.550;8.822;2022-08-19T07:21:29;19.80;99.90
8420;DHT22;4247;48.550;8.822;2022-08-19T07:23:58;19.80;99.90
8420;DHT22;4247;48.550;8.822;2022-08-19T07:26:27;19.80;99.90
8420;DHT22;4247;48.550;8.822;2022-08-19T07:28:55;19.80;99.90
8420;DHT22;4247;48.550;8.822;2022-08-19T07:31:24;19.80;99.90
8420;DHT22;4247;48.550;8.822;2022-08-19T07:33:53;19.90;99.90
8420;DHT22;4247;48.550;8.822;2022-08-19T07:36:26;19.90;99.90
8420;DHT22;4247;48.550;8.822;2022-08-19T07:38:59;19.90;99.90
8420;DHT22;4247;48.550;8.822;2022-08-19T07:41:28;19.90;99.90
8420;DHT22;4247;48.550;8.822;2022-08-19T07:43:57;19.90;99.90
8420;DHT22;4247;48.550;8.822;2022-08-19T07:46:24;20.00;99.90
8420;DHT22;4247;48.550;8.822;2022-08-19T07:48:53;20.00;99.90
8420;DHT22;4247;48.550;8.822;2022-08-19T07:51:22;20.10;99.90
8420;DHT22;4247;48.550;8.822;2022-08-19T07:53:49;20.00;99.90
8420;DHT22;4247;48.550;8.822;2022-08-19T07:56:17;20.10;99.90
8420;DHT22;4247;48.550;8.822;2022-08-19T07:58:45;20.10;99.90
8420;DHT22;4247;48.550;8.822;2022-08-19T08:01:14;20.10;99.90
8420;DHT22;4247;48.550;8.822;2022-08-19T08:03:42;20.10;99.90
8420;DHT22;4247;48.550;8.822;2022-08-19T08:06:45;20.20;99.90
8420;DHT22;4247;48.550;8.822;2022-08-19T08:09:32;20.30;99.90
8420;DHT22;4247;48.550;8.822;2022-08-19T08:12:03;20.30;99.90
8420;DHT22;4247;48.550;8.822;2022-08-19T08:14:33;20.30;99.90
8420;DHT22;4247;48.550;8.822;2022-08-19T08:17:07;20.40;99.90
8420;DHT22;4247;48.550;8.822;2022-08-19T08:19:34;20.40;99.90
8420;DHT22;4247;48.550;8.822;2022-08-19T08:22:03;20.40;99.90
8420;DHT22;4247;48.550;8.822;2022-08-19T08:24:32;20.50;99.90
8420;DHT22;4247;48.550;8.822;2022-08-19T08:27:00;20.50;99.90
8420;DHT22;4247;48.550;8.822;2022-08-19T08:29:28;20.60;99.90
8420;DHT22;4247;48.550;8.822;2022-08-19T08:31:55;20.60;99.90
8420;DHT22;4247;48.550;8.822;2022-08-19T08:34:23;20.60;99.90
8420;DHT22;4247;48.550;8.822;2022-08-19T08:36:50;20.60;99.90
8420;DHT22;4247;48.550;8.822;2022-08-19T08:39:20;20.70;99.90
8420;DHT22;4247;48.550;8.822;2022-08-19T08:41:53;20.70;99.90
8420;DHT22;4247;48.550;8.822;2022-08-19T08:47:10;20.80;99.90
8420;DHT22;4247;48.550;8.822;2022-08-19T08:49:46;20.80;99.90
8420;DHT22;4247;48.550;8.822;2022-08-19T08:52:18;20.90;99.90
8420;DHT22;4247;48.550;8.822;2022-08-19T08:54:51;20.90;99.90
8420;DHT22;4247;48.550;8.822;2022-08-19T08:57:24;20.90;99.90
8420;DHT22;4247;48.550;8.822;2022-08-19T08:59:56;21.00;99.90
8420;DHT22;4247;48.550;8.822;2022-08-19T09:02:25;20.90;99.90
8420;DHT22;4247;48.550;8.822;2022-08-19T09:04:54;21.00;99.90
8420;DHT22;4247;48.550;8.822;2022-08-19T09:07:28;21.10;99.90
8420;DHT22;4247;48.550;8.822;2022-08-19T09:10:10;21.10;99.90
8420;DHT22;4247;48.550;8.822;2022-08-19T09:12:48;21.00;99.90
8420;DHT22;4247;48.550;8.822;2022-08-19T09:15:24;21.10;99.90
8420;DHT22;4247;48.550;8.822;2022-08-19T09:17:52;21.10;99.90
8420;DHT22;4247;48.550;8.822;2022-08-19T09:20:23;21.00;99.90
8420;DHT22;4247;48.550;8.822;2022-08-19T09:22:50;21.00;99.90
8420;DHT22;4247;48.550;8.822;2022-08-19T09:25:21;21.10;99.90
8420;DHT22;4247;48.550;8.822;2022-08-19T09:27:50;21.20;99.90
8420;DHT22;4247;48.550;8.822;2022-08-19T09:30:22;21.10;99.90
8420;DHT22;4247;48.550;8.822;2022-08-19T09:32:50;21.10;99.90
8420;DHT22;4247;48.550;8.822;2022-08-19T09:35:20;21.20;99.90
8420;DHT22;4247;48.550;8.822;2022-08-19T09:37:49;21.20;99.90
8420;DHT22;4247;48.550;8.822;2022-08-19T09:40:17;21.10;99.90
8420;DHT22;4247;48.550;8.822;2022-08-19T09:42:46;21.20;99.90
8420;DHT22;4247;48.550;8.822;2022-08-19T09:45:13;21.20;99.90
8420;DHT22;4247;48.550;8.822;2022-08-19T09:47:40;21.10;99.90
8420;DHT22;4247;48.550;8.822;2022-08-19T09:50:09;21.20;99.90
8420;DHT22;4247;48.550;8.822;2022-08-19T09:52:38;21.20;99.90
8420;DHT22;4247;48.550;8.822;2022-08-19T09:55:06;21.10;99.90
8420;DHT22;4247;48.550;8.822;2022-08-19T09:57:34;21.10;99.90
8420;DHT22;4247;48.550;8.822;2022-08-19T10:00:04;21.10;99.90
8420;DHT22;4247;48.550;8.822;2022-08-19T10:02:31;21.10;99.90
8420;DHT22;4247;48.550;8.822;2022-08-19T10:04:59;21.10;99.90
8420;DHT22;4247;48.550;8.822;2022-08-19T10:07:44;21.10;99.90
8420;DHT22;4247;48.550;8.822;2022-08-19T10:10:11;21.00;99.90
8420;DHT22;4247;48.550;8.822;2022-08-19T10:12:38;21.10;99.90
8420;DHT22;4247;48.550;8.822;2022-08-19T10:15:10;21.10;99.90
8420;DHT22;4247;48.550;8.822;2022-08-19T10:17:38;21.10;99.90
8420;DHT22;4247;48.550;8.822;2022-08-19T10:20:06;21.10;99.90
8420;DHT22;4247;48.550;8.822;2022-08-19T10:22:33;21.10;99.90
8420;DHT22;4247;48.550;8.822;2022-08-19T10:25:01;21.10;99.90
8420;DHT22;4247;48.550;8.822;2022-08-19T10:27:29;21.10;99.90
8420;DHT22;4247;48.550;8.822;2022-08-19T10:29:56;21.10;99.90
8420;DHT22;4247;48.550;8.822;2022-08-19T10:32:24;21.10;99.90
8420;DHT22;4247;48.550;8.822;2022-08-19T10:34:51;21.10;99.90
8420;DHT22;4247;48.550;8.822;2022-08-19T10:37:19;21.10;99.90
8420;DHT22;4247;48.550;8.822;2022-08-19T10:39:46;21.20;99.90
8420;DHT22;4247;48.550;8.822;2022-08-19T10:42:14;21.20;99.90
8420;DHT22;4247;48.550;8.822;2022-08-19T10:44:42;21.30;99.90
8420;DHT22;4247;48.550;8.822;2022-08-19T10:47:09;21.30;99.90
8420;DHT22;4247;48.550;8.822;2022-08-19T10:49:37;21.40;99.90
8420;DHT22;4247;48.550;8.822;2022-08-19T10:52:24;21.50;99.90
8420;DHT22;4247;48.550;8.822;2022-08-19T10:54:59;21.60;99.90
8420;DHT22;4247;48.550;8.822;2022-08-19T10:57:46;21.60;99.90
8420;DHT22;4247;48.550;8.822;2022-08-19T11:00:14;21.60;99.90
8420;DHT22;4247;48.550;8.822;2022-08-19T11:02:41;21.70;99.90
8420;DHT22;4247;48.550;8.822;2022-08-19T11:05:10;21.70;99.90
8420;DHT22;4247;48.550;8.822;2022-08-19T11:07:38;21.80;99.90
8420;DHT22;4247;48.550;8.822;2022-08-19T11:10:10;21.70;99.90
8420;DHT22;4247;48.550;8.822;2022-08-19T11:12:38;21.80;99.90
8420;DHT22;4247;48.550;8.822;2022-08-19T11:15:07;21.80;99.90
8420;DHT22;4247;48.550;8.822;2022-08-19T11:17:37;21.90;99.90
8420;DHT22;4247;48.550;8.822;2022-08-19T11:20:10;21.90;99.90
8420;DHT22;4247;48.550;8.822;2022-08-19T11:22:38;22.00;99.90
8420;DHT22;4247;48.550;8.822;2022-08-19T11:25:06;22.00;99.90
8420;DHT22;4247;48.550;8.822;2022-08-19T11:27:36;22.00;99.90
8420;DHT22;4247;48.550;8.822;2022-08-19T11:30:04;22.00;99.90
8420;DHT22;4247;48.550;8.822;2022-08-19T11:32:33;22.10;99.90
8420;DHT22;4247;48.550;8.822;2022-08-19T11:35:00;22.10;99.90
8420;DHT22;4247;48.550;8.822;2022-08-19T11:37:29;22.10;99.90
8420;DHT22;4247;48.550;8.822;2022-08-19T11:39:56;22.10;99.90
8420;DHT22;4247;48.550;8.822;2022-08-19T11:42:26;22.10;99.90
8420;DHT22;4247;48.550;8.822;2022-08-19T11:45:10;22.10;99.90
8420;DHT22;4247;48.550;8.822;2022-08-19T11:47:37;22.10;99.90
8420;DHT22;4247;48.550;8.822;2022-08-19T11:50:05;22.10;99.90
8420;DHT22;4247;48.550;8.822;2022-08-19T11:52:37;22.20;99.90
8420;DHT22;4247;48.550;8.822;2022-08-19T11:55:05;22.10;99.90
8420;DHT22;4247;48.550;8.822;2022-08-19T11:57:32;22.10;99.90
8420;DHT22;4247;48.550;8.822;2022-08-19T11:59:59;22.20;99.90
8420;DHT22;4247;48.550;8.822;2022-08-19T12:02:27;22.20;99.90
8420;DHT22;4247;48.550;8.822;2022-08-19T12:04:55;22.20;99.90
8420;DHT22;4247;48.550;8.822;2022-08-19T12:07:22;22.20;99.90
8420;DHT22;4247;48.550;8.822;2022-08-19T12:09:51;22.30;99.90
8420;DHT22;4247;48.550;8.822;2022-08-19T12:12:18;22.40;99.90
8420;DHT22;4247;48.550;8.822;2022-08-19T12:14:45;22.50;99.90
8420;DHT22;4247;48.550;8.822;2022-08-19T12:17:12;22.50;99.90
8420;DHT22;4247;48.550;8.822;2022-08-19T12:19:39;22.70;99.90
8420;DHT22;4247;48.550;8.822;2022-08-19T12:22:06;22.80;99.90
8420;DHT22;4247;48.550;8.822;2022-08-19T12:24:33;22.90;99.90
8420;DHT22;4247;48.550;8.822;2022-08-19T12:27:01;23.10;99.90
8420;DHT22;4247;48.550;8.822;2022-08-19T12:29:28;23.10;99.90
8420;DHT22;4247;48.550;8.822;2022-08-19T12:31:56;23.20;99.90
8420;DHT22;4247;48.550;8.822;2022-08-19T12:34:27;23.20;99.90
8420;DHT22;4247;48.550;8.822;2022-08-19T12:36:56;23.30;99.90
8420;DHT22;4247;48.550;8.822;2022-08-19T12:39:23;23.50;99.90
8420;DHT22;4247;48.550;8.822;2022-08-19T12:41:50;23.60;99.90
8420;DHT22;4247;48.550;8.822;2022-08-19T12:44:19;23.90;99.90
8420;DHT22;4247;48.550;8.822;2022-08-19T12:46:46;24.00;99.90
8420;DHT22;4247;48.550;8.822;2022-08-19T12:49:14;24.10;99.90
8420;DHT22;4247;48.550;8.822;2022-08-19T12:51:42;24.30;99.90
8420;DHT22;4247;48.550;8.822;2022-08-19T12:54:09;24.40;99.90
8420;DHT22;4247;48.550;8.822;2022-08-19T12:56:36;24.60;99.90
8420;DHT22;4247;48.550;8.822;2022-08-19T12:59:04;24.70;99.90
8420;DHT22;4247;48.550;8.822;2022-08-19T13:01:34;24.70;99.90
8420;DHT22;4247;48.550;8.822;2022-08-19T13:04:02;24.80;99.90
8420;DHT22;4247;48.550;8.822;2022-08-19T13:06:30;24.80;99.90
8420;DHT22;4247;48.550;8.822;2022-08-19T13:08:57;24.80;99.90
8420;DHT22;4247;48.550;8.822;2022-08-19T13:11:24;24.80;99.90
8420;DHT22;4247;48.550;8.822;2022-08-19T13:13:51;24.80;99.90
8420;DHT22;4247;48.550;8.822;2022-08-19T13:16:20;24.80;99.90
8420;DHT22;4247;48.550;8.822;2022-08-19T13:18:49;24.60;99.90
8420;DHT22;4247;48.550;8.822;2022-08-19T13:21:18;24.40;99.10
8420;DHT22;4247;48.550;8.822;2022-08-19T13:23:46;24.20;99.90
8420;DHT22;4247;48.550;8.822;2022-08-19T13:26:14;24.00;99.20
8420;DHT22;4247;48.550;8.822;2022-08-19T13:28:43;23.80;98.70
8420;DHT22;4247;48.550;8.822;2022-08-19T13:31:29;23.80;99.40
8420;DHT22;4247;48.550;8.822;2022-08-19T13:34:17;23.90;98.80
8420;DHT22;4247;48.550;8.822;2022-08-19T13:36:45;23.90;98.50
8420;DHT22;4247;48.550;8.822;2022-08-19T13:39:12;23.90;98.70
8420;DHT22;4247;48.550;8.822;2022-08-19T13:41:43;24.00;99.20
8420;DHT22;4247;48.550;8.822;2022-08-19T13:44:13;24.00;99.00
8420;DHT22;4247;48.550;8.822;2022-08-19T13:46:40;24.10;99.10
8420;DHT22;4247;48.550;8.822;2022-08-19T13:49:10;24.10;98.90
8420;DHT22;4247;48.550;8.822;2022-08-19T13:51:39;24.20;99.20
8420;DHT22;4247;48.550;8.822;2022-08-19T13:54:06;24.20;98.70
8420;DHT22;4247;48.550;8.822;2022-08-19T13:56:34;24.30;98.70
8420;DHT22;4247;48.550;8.822;2022-08-19T13:59:02;24.40;98.70
8420;DHT22;4247;48.550;8.822;2022-08-19T14:01:28;24.40;98.90
8420;DHT22;4247;48.550;8.822;2022-08-19T14:03:55;24.40;98.80
8420;DHT22;4247;48.550;8.822;2022-08-19T14:06:23;24.40;98.20
8420;DHT22;4247;48.550;8.822;2022-08-19T14:08:52;24.40;98.70
8420;DHT22;4247;48.550;8.822;2022-08-19T14:11:19;24.40;97.90
8420;DHT22;4247;48.550;8.822;2022-08-19T14:13:48;24.30;97.50
8420;DHT22;4247;48.550;8.822;2022-08-19T14:16:17;24.30;98.20
8420;DHT22;4247;48.550;8.822;2022-08-19T14:18:44;24.30;98.60
8420;DHT22;4247;48.550;8.822;2022-08-19T14:21:15;24.30;98.00
8420;DHT22;4247;48.550;8.822;2022-08-19T14:23:43;24.20;98.10
8420;DHT22;4247;48.550;8.822;2022-08-19T14:26:13;24.10;97.70
8420;DHT22;4247;48.550;8.822;2022-08-19T14:28:41;24.10;98.30
8420;DHT22;4247;48.550;8.822;2022-08-19T14:31:08;24.20;98.80
8420;DHT22;4247;48.550;8.822;2022-08-19T14:33:35;24.20;98.60
8420;DHT22;4247;48.550;8.822;2022-08-19T14:36:03;24.20;98.20
8420;DHT22;4247;48.550;8.822;2022-08-19T14:38:30;24.20;98.20
8420;DHT22;4247;48.550;8.822;2022-08-19T14:41:06;24.10;97.70
8420;DHT22;4247;48.550;8.822;2022-08-19T14:43:35;24.10;98.20
8420;DHT22;4247;48.550;8.822;2022-08-19T14:46:06;24.00;98.20
8420;DHT22;4247;48.550;8.822;2022-08-19T14:48:35;24.00;98.40
8420;DHT22;4247;48.550;8.822;2022-08-19T14:51:04;24.10;98.40
8420;DHT22;4247;48.550;8.822;2022-08-19T14:53:31;24.00;98.10
8420;DHT22;4247;48.550;8.822;2022-08-19T14:56:00;24.00;98.10
8420;DHT22;4247;48.550;8.822;2022-08-19T14:58:27;24.00;98.00
8420;DHT22;4247;48.550;8.822;2022-08-19T15:00:57;24.00;98.20
8420;DHT22;4247;48.550;8.822;2022-08-19T15:03:24;24.00;98.60
8420;DHT22;4247;48.550;8.822;2022-08-19T15:05:51;24.00;98.30
8420;DHT22;4247;48.550;8.822;2022-08-19T15:08:19;24.00;98.40
8420;DHT22;4247;48.550;8.822;2022-08-19T15:10:50;24.00;98.60
8420;DHT22;4247;48.550;8.822;2022-08-19T15:13:17;24.10;98.50
8420;DHT22;4247;48.550;8.822;2022-08-19T15:15:44;24.00;98.40
8420;DHT22;4247;48.550;8.822;2022-08-19T15:18:14;24.10;98.40
8420;DHT22;4247;48.550;8.822;2022-08-19T15:20:41;24.10;98.50
8420;DHT22;4247;48.550;8.822;2022-08-19T15:23:09;24.00;98.40
8420;DHT22;4247;48.550;8.822;2022-08-19T15:25:36;24.00;98.50
8420;DHT22;4247;48.550;8.822;2022-08-19T15:28:04;24.00;98.50
8420;DHT22;4247;48.550;8.822;2022-08-19T15:30:31;24.00;99.10
8420;DHT22;4247;48.550;8.822;2022-08-19T15:32:59;23.90;99.00
8420;DHT22;4247;48.550;8.822;2022-08-19T15:35:27;23.90;98.70
8420;DHT22;4247;48.550;8.822;2022-08-19T15:37:55;23.80;98.70
8420;DHT22;4247;48.550;8.822;2022-08-19T15:40:26;23.80;98.30
8420;DHT22;4247;48.550;8.822;2022-08-19T15:42:53;23.80;98.90
8420;DHT22;4247;48.550;8.822;2022-08-19T15:45:21;23.70;98.10
8420;DHT22;4247;48.550;8.822;2022-08-19T15:47:48;23.70;97.10
8420;DHT22;4247;48.550;8.822;2022-08-19T15:50:18;23.70;97.10
8420;DHT22;4247;48.550;8.822;2022-08-19T15:52:53;23.60;97.20
8420;DHT22;4247;48.550;8.822;2022-08-19T15:55:23;23.70;97.30
8420;DHT22;4247;48.550;8.822;2022-08-19T15:57:50;23.70;96.70
8420;DHT22;4247;48.550;8.822;2022-08-19T16:00:34;23.70;97.00
8420;DHT22;4247;48.550;8.822;2022-08-19T16:03:20;23.70;97.00
8420;DHT22;4247;48.550;8.822;2022-08-19T16:06:05;23.70;97.00
8420;DHT22;4247;48.550;8.822;2022-08-19T16:08:50;23.70;97.70
8420;DHT22;4247;48.550;8.822;2022-08-19T16:11:20;23.70;97.80
8420;DHT22;4247;48.550;8.822;2022-08-19T16:13:51;23.80;97.90
8420;DHT22;4247;48.550;8.822;2022-08-19T16:16:19;23.80;98.20
8420;DHT22;4247;48.550;8.822;2022-08-19T16:18:46;23.80;97.80